Anderson, Texas
Current Conditions -  °F | °C
As of 8:53 AM on Thursday 23 Oct 2014 (Local Time) from KCLL Reporting Station
Clear Clear  
Wind Chill: 65°   Ceiling: Unl
Heat Index: 65°   Visibility: 10mi
Dew Point: 54°   Wind: 5mph
Humidity: 68%   Direction: 70°ENE
Pressure: 30.14"   Gusts: NA
Location:  30.49°N, 95.99°W
Report Text: KCLL 231353Z 07004KT 10SM CLR 18/12 A3014 RMK AO2 RAE27 SLP204 P0000 T01830122
Loading
Personal Weather Stations






























Interactive Weather Map
Tropical Storm Tracking
New forecast layout! Learn more

10-Day Weather Forecast

Advertisements
Track Severe Weather on mobile